Time,TemperatureF,DewpointF,PressureIn,WindDirection,WindDirectionDegrees,WindSpeedMPH,WindSpeedGustMPH,Humidity,HourlyPrecipIn,Conditions,Clouds,dailyrainin,SoftwareType,DateUTC
2013-02-07 00:00:00,67.6,62.6,30.03,SE,146,0.0,0.0,84,0.00,,,0.00,VWS V14.01,2013-02-07 05:00:00,
2013-02-07 00:05:00,67.3,62.3,30.03,SE,145,0.0,0.0,84,0.00,,,0.00,VWS V14.01,2013-02-07 05:05:00,
2013-02-07 00:10:00,67.1,62.5,30.03,SE,146,0.0,0.0,85,0.00,,,0.00,VWS V14.01,2013-02-07 05:10:00,
2013-02-07 00:15:00,66.9,62.2,30.03,SE,146,0.0,0.0,85,0.00,,,0.00,VWS V14.01,2013-02-07 05:15:00,
2013-02-07 00:20:00,66.8,62.5,30.02,SE,146,0.0,0.0,86,0.00,,,0.00,VWS V14.01,2013-02-07 05:20:00,
2013-02-07 00:25:00,66.6,62.3,30.02,SE,146,0.0,0.0,86,0.00,,,0.00,VWS V14.01,2013-02-07 05:25:00,
2013-02-07 00:30:00,66.4,62.4,30.02,SE,146,0.0,0.0,87,0.00,,,0.00,VWS V14.01,2013-02-07 05:30:00,
2013-02-07 00:35:00,66.1,62.1,30.02,SE,146,0.0,0.0,87,0.00,,,0.00,VWS V14.01,2013-02-07 05:35:00,
2013-02-07 00:40:00,66.0,62.0,30.02,SE,145,0.0,0.0,87,0.00,,,0.00,VWS V14.01,2013-02-07 05:40:00,
2013-02-07 00:45:00,65.8,62.2,30.02,SE,145,0.0,0.0,88,0.00,,,0.00,VWS V14.01,2013-02-07 05:45:00,
2013-02-07 00:50:00,65.6,62.0,30.01,SE,146,0.0,0.0,88,0.00,,,0.00,VWS V14.01,2013-02-07 05:50:00,
2013-02-07 00:55:00,65.6,62.0,30.01,SE,145,0.0,0.0,88,0.00,,,0.00,VWS V14.01,2013-02-07 05:55:00,
2013-02-07 01:00:00,65.8,62.2,30.01,SE,146,0.0,0.0,88,0.00,,,0.00,VWS V14.01,2013-02-07 06:00:00,
2013-02-07 01:05:00,66.0,62.3,30.01,SE,145,0.0,0.0,88,0.00,,,0.00,VWS V14.01,2013-02-07 06:05:00,
2013-02-07 01:10:00,66.1,62.5,30.01,SE,145,0.0,0.0,88,0.00,,,0.00,VWS V14.01,2013-02-07 06:10:00,
2013-02-07 01:15:00,66.3,62.6,30.01,SE,146,0.0,0.0,88,0.00,,,0.00,VWS V14.01,2013-02-07 06:15:00,
2013-02-07 01:20:00,66.3,62.3,30.01,SE,145,0.0,0.0,87,0.00,,,0.00,VWS V14.01,2013-02-07 06:20:00,
2013-02-07 01:25:00,66.3,62.3,30.01,SE,145,0.0,0.0,87,0.00,,,0.00,VWS V14.01,2013-02-07 06:25:00,
2013-02-07 01:30:00,66.3,62.3,30.01,SE,145,0.0,0.0,87,0.00,,,0.00,VWS V14.01,2013-02-07 06:30:00,
2013-02-07 01:35:00,66.3,62.3,30.01,SE,145,0.0,0.0,87,0.00,,,0.00,VWS V14.01,2013-02-07 06:35:00,
2013-02-07 01:40:00,66.3,62.3,30.01,SE,145,0.0,0.0,87,0.00,,,0.00,VWS V14.01,2013-02-07 06:40:00,
2013-02-07 01:45:00,66.3,62.3,30.01,SE,145,0.0,0.0,87,0.00,,,0.00,VWS V14.01,2013-02-07 06:45:00,
2013-02-07 01:50:00,66.1,62.1,30.01,SE,145,0.0,0.0,87,0.00,,,0.00,VWS V14.01,2013-02-07 06:50:00,
2013-02-07 01:55:00,66.0,62.0,30.01,SE,145,0.0,0.0,87,0.00,,,0.00,VWS V14.01,2013-02-07 06:55:00,
2013-02-07 02:00:00,65.8,61.8,30.01,SE,145,0.0,0.0,87,0.00,,,0.00,VWS V14.01,2013-02-07 07:00:00,
2013-02-07 02:05:00,66.0,62.0,30.01,SE,145,0.0,0.0,87,0.00,,,0.00,VWS V14.01,2013-02-07 07:05:00,
2013-02-07 02:10:00,66.0,62.0,30.01,SE,145,0.0,0.0,87,0.00,,,0.00,VWS V14.01,2013-02-07 07:10:00,
2013-02-07 02:15:00,66.0,62.0,30.01,SE,145,0.0,0.0,87,0.00,,,0.00,VWS V14.01,2013-02-07 07:15:00,
2013-02-07 02:20:00,65.6,61.6,30.01,SE,145,0.0,0.0,87,0.00,,,0.00,VWS V14.01,2013-02-07 07:20:00,
2013-02-07 02:25:00,65.5,61.9,30.01,SE,145,0.0,0.0,88,0.00,,,0.00,VWS V14.01,2013-02-07 07:25:00,
2013-02-07 02:30:00,65.3,61.7,30.01,SE,145,0.0,0.0,88,0.00,,,0.00,VWS V14.01,2013-02-07 07:30:00,
2013-02-07 02:35:00,65.2,61.9,30.00,SE,145,0.0,0.0,89,0.00,,,0.00,VWS V14.01,2013-02-07 07:35:00,
2013-02-07 02:40:00,64.8,61.5,30.00,SE,145,0.0,0.0,89,0.00,,,0.00,VWS V14.01,2013-02-07 07:40:00,
2013-02-07 02:45:00,64.3,61.0,30.00,SE,145,0.0,0.0,89,0.00,,,0.00,VWS V14.01,2013-02-07 07:45:00,
2013-02-07 02:50:00,64.0,61.0,30.00,SE,145,0.0,0.0,90,0.00,,,0.00,VWS V14.01,2013-02-07 07:50:00,
2013-02-07 02:55:00,63.7,60.7,30.00,SE,145,0.0,0.0,90,0.00,,,0.00,VWS V14.01,2013-02-07 07:55:00,
2013-02-07 03:00:00,63.4,60.4,30.00,SE,145,0.0,0.0,90,0.00,,,0.00,VWS V14.01,2013-02-07 08:00:00,
2013-02-07 03:05:00,63.2,60.5,30.00,SE,145,0.0,0.0,91,0.00,,,0.00,VWS V14.01,2013-02-07 08:05:00,
2013-02-07 03:10:00,62.7,60.0,30.00,SE,145,0.0,0.0,91,0.00,,,0.00,VWS V14.01,2013-02-07 08:10:00,
2013-02-07 03:15:00,62.6,59.9,30.00,SE,145,0.0,0.0,91,0.00,,,0.00,VWS V14.01,2013-02-07 08:15:00,
2013-02-07 03:20:00,62.6,60.2,30.00,SE,145,0.0,0.0,92,0.00,,,0.00,VWS V14.01,2013-02-07 08:20:00,
2013-02-07 03:25:00,62.4,60.0,30.00,SE,145,0.0,0.0,92,0.00,,,0.00,VWS V14.01,2013-02-07 08:25:00,
2013-02-07 03:30:00,62.6,60.2,30.00,SE,145,0.0,0.0,92,0.00,,,0.00,VWS V14.01,2013-02-07 08:30:00,
2013-02-07 03:35:00,62.3,60.0,29.99,SE,145,0.0,0.0,92,0.00,,,0.00,VWS V14.01,2013-02-07 08:35:00,
2013-02-07 03:40:00,62.1,59.8,29.99,SE,145,0.0,0.0,92,0.00,,,0.00,VWS V14.01,2013-02-07 08:40:00,
2013-02-07 03:45:00,62.0,59.7,29.99,SE,145,0.0,0.0,92,0.00,,,0.00,VWS V14.01,2013-02-07 08:45:00,
2013-02-07 03:50:00,61.8,59.5,29.99,SE,145,0.0,0.0,92,0.00,,,0.00,VWS V14.01,2013-02-07 08:50:00,
2013-02-07 03:55:00,61.6,59.6,29.99,SE,145,0.0,0.0,93,0.00,,,0.00,VWS V14.01,2013-02-07 08:55:00,
2013-02-07 04:00:00,61.3,59.3,29.99,SE,145,0.0,0.0,93,0.00,,,0.00,VWS V14.01,2013-02-07 09:00:00,
2013-02-07 04:05:00,61.2,59.2,29.99,SE,145,0.0,0.0,93,0.00,,,0.00,VWS V14.01,2013-02-07 09:05:00,
2013-02-07 04:10:00,61.3,59.3,29.99,SE,145,0.0,0.0,93,0.00,,,0.00,VWS V14.01,2013-02-07 09:10:00,
2013-02-07 04:15:00,61.2,59.2,29.99,SE,145,0.0,0.0,93,0.00,,,0.00,VWS V14.01,2013-02-07 09:15:00,
2013-02-07 04:20:00,61.0,59.0,29.99,SE,145,0.0,0.0,93,0.00,,,0.00,VWS V14.01,2013-02-07 09:20:00,
2013-02-07 04:25:00,60.9,58.9,29.99,SE,145,0.0,0.0,93,0.00,,,0.00,VWS V14.01,2013-02-07 09:25:00,
2013-02-07 04:30:00,60.5,58.5,29.99,SE,145,0.0,0.0,93,0.00,,,0.00,VWS V14.01,2013-02-07 09:30:00,
2013-02-07 04:35:00,60.4,58.7,29.99,SE,145,0.0,0.0,94,0.00,,,0.00,VWS V14.01,2013-02-07 09:35:00,
2013-02-07 04:40:00,60.5,58.8,29.99,SE,145,0.0,0.0,94,0.00,,,0.00,VWS V14.01,2013-02-07 09:40:00,
2013-02-07 04:45:00,60.5,58.8,29.99,SE,145,0.0,0.0,94,0.00,,,0.00,VWS V14.01,2013-02-07 09:45:00,
2013-02-07 04:50:00,60.4,58.7,29.99,SE,145,0.0,0.0,94,0.00,,,0.00,VWS V14.01,2013-02-07 09:50:00,
2013-02-07 04:55:00,61.0,59.6,29.99,SE,145,0.0,0.0,95,0.00,,,0.00,VWS V14.01,2013-02-07 09:55:00,
2013-02-07 05:00:00,61.5,59.8,29.99,SE,145,0.0,0.0,94,0.00,,,0.00,VWS V14.01,2013-02-07 10:00:00,
2013-02-07 05:05:00,61.0,59.0,29.99,SE,145,0.0,0.0,93,0.00,,,0.00,VWS V14.01,2013-02-07 10:05:00,
2013-02-07 05:10:00,60.7,59.0,29.99,SE,145,0.0,0.0,94,0.00,,,0.00,VWS V14.01,2013-02-07 10:10:00,
2013-02-07 05:15:00,60.7,59.0,29.99,SE,145,0.0,0.0,94,0.00,,,0.00,VWS V14.01,2013-02-07 10:15:00,
2013-02-07 05:20:00,60.7,59.0,29.99,SE,145,0.0,0.0,94,0.00,,,0.00,VWS V14.01,2013-02-07 10:20:00,
2013-02-07 05:25:00,61.0,59.3,29.99,SE,145,0.0,0.0,94,0.00,,,0.00,VWS V14.01,2013-02-07 10:25:00,
2013-02-07 05:30:00,61.3,59.9,29.99,SE,145,0.0,0.0,95,0.00,,,0.00,VWS V14.01,2013-02-07 10:30:00,
2013-02-07 05:35:00,60.7,59.0,30.00,SE,145,0.0,0.0,94,0.00,,,0.00,VWS V14.01,2013-02-07 10:35:00,
2013-02-07 05:40:00,60.7,59.0,30.00,SE,145,0.0,0.0,94,0.00,,,0.00,VWS V14.01,2013-02-07 10:40:00,
2013-02-07 05:45:00,60.4,58.7,30.00,SE,145,0.0,0.0,94,0.00,,,0.00,VWS V14.01,2013-02-07 10:45:00,
2013-02-07 05:50:00,60.4,58.7,30.00,SE,145,0.0,0.0,94,0.00,,,0.00,VWS V14.01,2013-02-07 10:50:00,
2013-02-07 05:55:00,60.4,58.7,30.00,SE,145,0.0,0.0,94,0.00,,,0.00,VWS V14.01,2013-02-07 10:55:00,
2013-02-07 06:00:00,60.2,58.5,30.00,SE,145,0.0,0.0,94,0.00,,,0.00,VWS V14.01,2013-02-07 11:00:00,
2013-02-07 06:05:00,60.2,58.5,30.00,SE,145,0.0,0.0,94,0.00,,,0.00,VWS V14.01,2013-02-07 11:05:00,
2013-02-07 06:10:00,60.1,58.4,30.00,SE,145,0.0,0.0,94,0.00,,,0.00,VWS V14.01,2013-02-07 11:10:00,
2013-02-07 06:15:00,60.1,58.4,30.00,SE,145,0.0,0.0,94,0.00,,,0.00,VWS V14.01,2013-02-07 11:15:00,
2013-02-07 06:20:00,59.9,58.2,30.00,SE,145,0.0,0.0,94,0.00,,,0.00,VWS V14.01,2013-02-07 11:20:00,
2013-02-07 06:25:00,59.9,58.5,30.00,SE,145,0.0,0.0,95,0.00,,,0.00,VWS V14.01,2013-02-07 11:25:00,
2013-02-07 06:30:00,60.1,58.7,30.00,SE,145,0.0,0.0,95,0.00,,,0.00,VWS V14.01,2013-02-07 11:30:00,
2013-02-07 06:35:00,60.1,58.7,30.00,SE,145,0.0,0.0,95,0.00,,,0.00,VWS V14.01,2013-02-07 11:35:00,
2013-02-07 06:40:00,60.1,58.7,30.00,SE,145,0.0,0.0,95,0.00,,,0.00,VWS V14.01,2013-02-07 11:40:00,
2013-02-07 06:45:00,60.5,59.1,30.00,SE,145,0.0,0.0,95,0.00,,,0.00,VWS V14.01,2013-02-07 11:45:00,
2013-02-07 06:50:00,60.4,59.0,30.00,SE,145,0.0,0.0,95,0.00,,,0.00,VWS V14.01,2013-02-07 11:50:00,
2013-02-07 06:55:00,60.4,59.0,30.00,SE,145,0.0,0.0,95,0.00,,,0.00,VWS V14.01,2013-02-07 11:55:00,
2013-02-07 07:00:00,60.7,59.3,30.00,SE,145,0.0,0.0,95,0.00,,,0.00,VWS V14.01,2013-02-07 12:00:00,
2013-02-07 07:05:00,60.7,59.3,30.00,SE,145,0.0,0.0,95,0.00,,,0.00,VWS V14.01,2013-02-07 12:05:00,
2013-02-07 07:10:00,61.0,59.6,30.00,SE,145,0.0,0.0,95,0.00,,,0.00,VWS V14.01,2013-02-07 12:10:00,
2013-02-07 07:15:00,61.2,59.8,30.00,SE,145,0.0,0.0,95,0.00,,,0.00,VWS V14.01,2013-02-07 12:15:00,
2013-02-07 07:20:00,61.6,60.2,30.01,SE,145,0.0,0.0,95,0.00,,,0.00,VWS V14.01,2013-02-07 12:20:00,
2013-02-07 07:25:00,62.1,60.7,30.01,SE,145,0.0,0.0,95,0.00,,,0.00,VWS V14.01,2013-02-07 12:25:00,
2013-02-07 07:30:00,62.3,60.8,30.01,SE,145,0.0,0.0,95,0.00,,,0.00,VWS V14.01,2013-02-07 12:30:00,
2013-02-07 07:35:00,62.3,60.8,30.01,SE,145,0.0,0.0,95,0.00,,,0.00,VWS V14.01,2013-02-07 12:35:00,
2013-02-07 07:40:00,62.4,61.0,30.01,SE,145,0.0,0.0,95,0.00,,,0.00,VWS V14.01,2013-02-07 12:40:00,
2013-02-07 07:45:00,62.7,61.2,30.01,SE,145,0.0,0.0,95,0.00,,,0.00,VWS V14.01,2013-02-07 12:45:00,
2013-02-07 07:50:00,63.1,61.3,30.00,SE,145,0.0,0.0,94,0.00,,,0.00,VWS V14.01,2013-02-07 12:50:00,
2013-02-07 07:55:00,63.7,62.0,30.00,SE,145,0.0,0.0,94,0.00,,,0.00,VWS V14.01,2013-02-07 12:55:00,
2013-02-07 08:00:00,64.5,62.4,30.00,SE,145,0.0,0.0,93,0.00,,,0.00,VWS V14.01,2013-02-07 13:00:00,
2013-02-07 08:05:00,65.2,62.8,30.00,SE,145,0.0,0.0,92,0.00,,,0.00,VWS V14.01,2013-02-07 13:05:00,
2013-02-07 08:10:00,65.8,63.1,30.00,SE,145,0.0,0.0,91,0.00,,,0.00,VWS V14.01,2013-02-07 13:10:00,
2013-02-07 08:15:00,66.3,63.0,30.00,SE,145,0.0,0.0,89,0.00,,,0.00,VWS V14.01,2013-02-07 13:15:00,
2013-02-07 08:20:00,66.8,63.1,30.01,SE,145,0.0,0.0,88,0.00,,,0.00,VWS V14.01,2013-02-07 13:20:00,
2013-02-07 08:25:00,67.1,63.1,30.01,SE,145,0.0,0.0,87,0.00,,,0.00,VWS V14.01,2013-02-07 13:25:00,
2013-02-07 08:30:00,67.6,63.3,30.01,SE,145,0.0,0.0,86,0.00,,,0.00,VWS V14.01,2013-02-07 13:30:00,
2013-02-07 08:35:00,68.1,63.1,30.01,SSE,149,2.0,4.0,84,0.00,,,0.00,VWS V14.01,2013-02-07 13:35:00,
2013-02-07 08:40:00,68.9,63.5,30.01,SSE,155,0.0,5.0,83,0.00,,,0.00,VWS V14.01,2013-02-07 13:40:00,
2013-02-07 08:45:00,69.6,63.5,30.01,SSE,159,0.0,5.0,81,0.00,,,0.00,VWS V14.01,2013-02-07 13:45:00,
2013-02-07 08:50:00,70.3,63.1,30.00,SSE,161,3.0,5.0,78,0.00,,,0.00,VWS V14.01,2013-02-07 13:50:00,
2013-02-07 08:55:00,70.8,62.9,30.00,South,171,3.0,9.0,76,0.00,,,0.00,VWS V14.01,2013-02-07 13:55:00,
2013-02-07 09:00:00,71.5,62.8,30.00,SSE,150,3.0,9.0,74,0.00,,,0.00,VWS V14.01,2013-02-07 14:00:00,
2013-02-07 09:05:00,71.8,62.3,30.00,SSE,165,2.0,12.0,72,0.00,,,0.00,VWS V14.01,2013-02-07 14:05:00,
2013-02-07 09:10:00,72.1,61.8,30.00,SSE,150,6.0,7.0,70,0.00,,,0.00,VWS V14.01,2013-02-07 14:10:00,
2013-02-07 09:15:00,72.7,62.4,30.00,SE,128,6.0,8.0,70,0.00,,,0.00,VWS V14.01,2013-02-07 14:15:00,
2013-02-07 09:20:00,72.8,61.6,30.00,SE,145,7.0,9.0,68,0.00,,,0.00,VWS V14.01,2013-02-07 14:20:00,
2013-02-07 09:25:00,73.2,61.2,30.00,South,172,9.0,14.0,66,0.00,,,0.00,VWS V14.01,2013-02-07 14:25:00,
2013-02-07 09:30:00,73.5,61.5,30.00,SSE,159,6.0,14.0,66,0.00,,,0.00,VWS V14.01,2013-02-07 14:30:00,
2013-02-07 09:35:00,73.7,61.7,30.00,South,178,6.0,14.0,66,0.00,,,0.00,VWS V14.01,2013-02-07 14:35:00,
2013-02-07 09:40:00,73.9,61.8,30.00,South,186,6.0,11.0,66,0.00,,,0.00,VWS V14.01,2013-02-07 14:40:00,
2013-02-07 09:45:00,74.0,61.5,30.00,SE,124,9.0,13.0,65,0.00,,,0.00,VWS V14.01,2013-02-07 14:45:00,
2013-02-07 09:50:00,74.0,61.9,30.00,South,180,12.0,13.0,66,0.00,,,0.00,VWS V14.01,2013-02-07 14:50:00,
2013-02-07 09:55:00,74.4,62.3,30.00,South,173,5.0,13.0,66,0.00,,,0.00,VWS V14.01,2013-02-07 14:55:00,
2013-02-07 10:00:00,74.6,62.1,30.00,SE,128,6.0,14.0,65,0.00,,,0.00,VWS V14.01,2013-02-07 15:00:00,
2013-02-07 10:05:00,74.2,61.7,30.00,South,183,6.0,15.0,65,0.00,,,0.00,VWS V14.01,2013-02-07 15:05:00,
2013-02-07 10:10:00,74.4,61.9,30.00,SE,139,7.0,13.0,65,0.00,,,0.00,VWS V14.01,2013-02-07 15:10:00,
2013-02-07 10:15:00,74.4,61.9,30.00,SSW,201,9.0,14.0,65,0.00,,,0.00,VWS V14.01,2013-02-07 15:15:00,
2013-02-07 10:20:00,74.4,61.9,30.00,SSE,162,8.0,14.0,65,0.00,,,0.00,VWS V14.01,2013-02-07 15:20:00,
2013-02-07 10:25:00,74.4,61.9,30.00,SE,128,14.0,17.0,65,0.00,,,0.00,VWS V14.01,2013-02-07 15:25:00,
2013-02-07 10:30:00,74.4,61.9,30.00,SE,133,14.0,19.0,65,0.00,,,0.00,VWS V14.01,2013-02-07 15:30:00,
2013-02-07 10:35:00,74.7,61.7,29.99,SSE,150,10.0,19.0,64,0.00,,,0.00,VWS V14.01,2013-02-07 15:35:00,
2013-02-07 10:40:00,75.3,61.8,29.99,SSE,160,5.0,19.0,63,0.00,,,0.00,VWS V14.01,2013-02-07 15:40:00,
2013-02-07 10:45:00,76.1,62.2,29.99,SE,136,12.0,19.0,62,0.00,,,0.00,VWS V14.01,2013-02-07 15:45:00,
2013-02-07 10:50:00,75.4,61.5,29.99,SSE,149,7.0,19.0,62,0.00,,,0.00,VWS V14.01,2013-02-07 15:50:00,
2013-02-07 10:55:00,75.4,61.5,29.99,SE,142,6.0,19.0,62,0.00,,,0.00,VWS V14.01,2013-02-07 15:55:00,
2013-02-07 11:00:00,75.4,61.9,29.99,SSE,147,4.0,19.0,63,0.00,,,0.00,VWS V14.01,2013-02-07 16:00:00,
2013-02-07 11:05:00,75.6,61.7,30.00,SE,143,7.0,19.0,62,0.00,,,0.00,VWS V14.01,2013-02-07 16:05:00,
2013-02-07 11:10:00,75.1,61.2,30.00,SSE,150,8.0,13.0,62,0.00,,,0.00,VWS V14.01,2013-02-07 16:10:00,
2013-02-07 11:15:00,74.6,60.7,30.00,South,170,4.0,14.0,62,0.00,,,0.00,VWS V14.01,2013-02-07 16:15:00,
2013-02-07 11:20:00,74.7,61.7,29.99,SSE,155,10.0,14.0,64,0.00,,,0.00,VWS V14.01,2013-02-07 16:20:00,
2013-02-07 11:25:00,74.4,61.0,29.99,SSE,158,8.0,16.0,63,0.00,,,0.00,VWS V14.01,2013-02-07 16:25:00,
2013-02-07 11:30:00,75.3,61.8,29.99,South,178,5.0,16.0,63,0.00,,,0.00,VWS V14.01,2013-02-07 16:30:00,
2013-02-07 11:35:00,75.8,61.4,29.98,SSE,157,6.0,16.0,61,0.00,,,0.00,VWS V14.01,2013-02-07 16:35:00,
2013-02-07 11:40:00,76.5,61.1,29.98,SE,138,4.0,15.0,59,0.00,,,0.00,VWS V14.01,2013-02-07 16:40:00,
2013-02-07 11:45:00,76.7,61.3,29.98,SSE,159,13.0,16.0,59,0.00,,,0.00,VWS V14.01,2013-02-07 16:45:00,
2013-02-07 11:50:00,77.0,61.1,29.96,SE,146,12.0,16.0,58,0.00,,,0.00,VWS V14.01,2013-02-07 16:50:00,
2013-02-07 11:55:00,76.5,61.1,29.96,SE,124,12.0,22.0,59,0.00,,,0.00,VWS V14.01,2013-02-07 16:55:00,
2013-02-07 12:00:00,75.6,61.2,29.96,SE,137,15.0,22.0,61,0.00,,,0.00,VWS V14.01,2013-02-07 17:00:00,
2013-02-07 12:05:00,75.1,61.2,29.95,SE,145,14.0,22.0,62,0.00,,,0.00,VWS V14.01,2013-02-07 17:05:00,
2013-02-07 12:10:00,75.1,61.2,29.95,SE,134,15.0,19.0,62,0.00,,,0.00,VWS V14.01,2013-02-07 17:10:00,
2013-02-07 12:15:00,75.1,61.7,29.95,SSE,148,9.0,20.0,63,0.00,,,0.00,VWS V14.01,2013-02-07 17:15:00,
2013-02-07 12:20:00,76.0,61.6,29.94,SSE,152,5.0,20.0,61,0.00,,,0.00,VWS V14.01,2013-02-07 17:20:00,
2013-02-07 12:25:00,76.3,61.4,29.94,SE,146,6.0,20.0,60,0.00,,,0.00,VWS V14.01,2013-02-07 17:25:00,
2013-02-07 12:30:00,76.5,61.6,29.94,South,179,8.0,20.0,60,0.00,,,0.00,VWS V14.01,2013-02-07 17:30:00,
2013-02-07 12:35:00,76.8,58.9,29.94,SE,142,10.0,20.0,54,0.00,,,0.00,VWS V14.01,2013-02-07 17:35:00,
2013-02-07 12:40:00,77.2,60.3,29.94,SE,130,8.0,15.0,56,0.00,,,0.00,VWS V14.01,2013-02-07 17:40:00,
2013-02-07 12:45:00,77.2,60.8,29.94,SE,138,6.0,15.0,57,0.00,,,0.00,VWS V14.01,2013-02-07 17:45:00,
2013-02-07 12:50:00,76.7,60.3,29.93,SSE,150,8.0,15.0,57,0.00,,,0.00,VWS V14.01,2013-02-07 17:50:00,
2013-02-07 12:55:00,76.3,60.5,29.93,SSE,159,6.0,17.0,58,0.00,,,0.00,VWS V14.01,2013-02-07 17:55:00,
2013-02-07 13:00:00,76.1,60.8,29.93,SE,130,9.0,17.0,59,0.00,,,0.00,VWS V14.01,2013-02-07 18:00:00,
2013-02-07 13:05:00,75.8,60.9,29.92,ESE,119,10.0,17.0,60,0.00,,,0.00,VWS V14.01,2013-02-07 18:05:00,
2013-02-07 13:10:00,76.3,61.4,29.92,SSW,202,6.0,14.0,60,0.00,,,0.00,VWS V14.01,2013-02-07 18:10:00,
2013-02-07 13:15:00,76.7,61.3,29.92,SSE,158,4.0,14.0,59,0.00,,,0.00,VWS V14.01,2013-02-07 18:15:00,
2013-02-07 13:20:00,76.7,61.3,29.92,South,178,9.0,18.0,59,0.00,,,0.00,VWS V14.01,2013-02-07 18:20:00,
2013-02-07 13:25:00,77.2,62.2,29.92,SE,142,10.0,18.0,60,0.00,,,0.00,VWS V14.01,2013-02-07 18:25:00,
2013-02-07 13:30:00,77.0,62.1,29.92,SE,131,12.0,20.0,60,0.00,,,0.00,VWS V14.01,2013-02-07 18:30:00,
2013-02-07 13:35:00,77.4,62.9,29.92,SE,131,9.0,20.0,61,0.00,,,0.00,VWS V14.01,2013-02-07 18:35:00,
2013-02-07 13:40:00,77.6,63.1,29.92,SSE,157,5.0,14.0,61,0.00,,,0.00,VWS V14.01,2013-02-07 18:40:00,
2013-02-07 13:45:00,77.4,62.4,29.92,SSE,148,15.0,18.0,60,0.00,,,0.00,VWS V14.01,2013-02-07 18:45:00,
2013-02-07 13:50:00,77.4,63.4,29.91,SE,144,7.0,18.0,62,0.00,,,0.00,VWS V14.01,2013-02-07 18:50:00,
2013-02-07 13:55:00,77.6,63.1,29.91,SSE,159,8.0,18.0,61,0.00,,,0.00,VWS V14.01,2013-02-07 18:55:00,
2013-02-07 14:00:00,77.7,63.2,29.91,SE,138,8.0,18.0,61,0.00,,,0.00,VWS V14.01,2013-02-07 19:00:00,
2013-02-07 14:05:00,77.2,62.7,29.90,ESE,121,7.0,18.0,61,0.00,,,0.00,VWS V14.01,2013-02-07 19:05:00,
2013-02-07 14:10:00,77.4,62.9,29.90,SE,139,12.0,15.0,61,0.00,,,0.00,VWS V14.01,2013-02-07 19:10:00,
2013-02-07 14:15:00,77.4,62.9,29.90,SE,129,8.0,19.0,61,0.00,,,0.00,VWS V14.01,2013-02-07 19:15:00,
2013-02-07 14:20:00,77.4,62.9,29.89,SSE,150,7.0,19.0,61,0.00,,,0.00,VWS V14.01,2013-02-07 19:20:00,
2013-02-07 14:25:00,77.7,63.2,29.89,ESE,123,4.0,19.0,61,0.00,,,0.00,VWS V14.01,2013-02-07 19:25:00,
2013-02-07 14:30:00,77.6,63.6,29.89,SE,138,12.0,19.0,62,0.00,,,0.00,VWS V14.01,2013-02-07 19:30:00,
2013-02-07 14:35:00,77.4,63.8,29.88,ESE,111,10.0,20.0,63,0.00,,,0.00,VWS V14.01,2013-02-07 19:35:00,
2013-02-07 14:40:00,77.2,63.6,29.88,SE,140,7.0,20.0,63,0.00,,,0.00,VWS V14.01,2013-02-07 19:40:00,
2013-02-07 14:45:00,77.4,62.9,29.88,SE,144,8.0,23.0,61,0.00,,,0.00,VWS V14.01,2013-02-07 19:45:00,
2013-02-07 14:50:00,77.6,63.6,29.88,SSE,163,8.0,23.0,62,0.00,,,0.00,VWS V14.01,2013-02-07 19:50:00,
2013-02-07 14:55:00,78.3,63.8,29.88,SE,134,9.0,23.0,61,0.00,,,0.00,VWS V14.01,2013-02-07 19:55:00,
2013-02-07 15:00:00,77.9,63.4,29.88,South,173,10.0,23.0,61,0.00,,,0.00,VWS V14.01,2013-02-07 20:00:00,
2013-02-07 15:05:00,77.4,63.4,29.87,SSE,160,15.0,23.0,62,0.00,,,0.00,VWS V14.01,2013-02-07 20:05:00,
2013-02-07 15:10:00,77.4,63.4,29.87,SE,129,6.0,19.0,62,0.00,,,0.00,VWS V14.01,2013-02-07 20:10:00,
2013-02-07 15:15:00,77.2,64.1,29.87,SSE,155,10.0,19.0,64,0.00,,,0.00,VWS V14.01,2013-02-07 20:15:00,
2013-02-07 15:20:00,77.4,64.3,29.86,SE,144,10.0,19.0,64,0.00,,,0.00,VWS V14.01,2013-02-07 20:20:00,
2013-02-07 15:25:00,76.8,63.7,29.86,SE,140,10.0,23.0,64,0.00,,,0.00,VWS V14.01,2013-02-07 20:25:00,
2013-02-07 15:30:00,77.2,64.5,29.86,SSE,155,12.0,23.0,65,0.00,,,0.00,VWS V14.01,2013-02-07 20:30:00,
2013-02-07 15:35:00,77.0,64.3,29.84,SSE,151,10.0,23.0,65,0.00,,,0.00,VWS V14.01,2013-02-07 20:35:00,
2013-02-07 15:40:00,76.5,63.9,29.84,South,169,17.0,21.0,65,0.00,,,0.00,VWS V14.01,2013-02-07 20:40:00,
2013-02-07 15:45:00,76.0,64.3,29.84,SE,132,10.0,21.0,67,0.00,,,0.00,VWS V14.01,2013-02-07 20:45:00,
2013-02-07 15:50:00,75.8,64.1,29.85,SE,135,13.0,21.0,67,0.00,,,0.00,VWS V14.01,2013-02-07 20:50:00,
2013-02-07 15:55:00,75.4,64.1,29.85,SSE,152,6.0,21.0,68,0.00,,,0.00,VWS V14.01,2013-02-07 20:55:00,
2013-02-07 16:00:00,75.3,64.8,29.85,SSE,157,5.0,21.0,70,0.00,,,0.00,VWS V14.01,2013-02-07 21:00:00,
2013-02-07 16:05:00,75.1,64.7,29.86,SSE,151,10.0,21.0,70,0.00,,,0.00,VWS V14.01,2013-02-07 21:05:00,
2013-02-07 16:10:00,75.3,65.3,29.86,SE,142,5.0,12.0,71,0.00,,,0.00,VWS V14.01,2013-02-07 21:10:00,
2013-02-07 16:15:00,75.3,65.3,29.86,SE,128,10.0,14.0,71,0.00,,,0.00,VWS V14.01,2013-02-07 21:15:00,
2013-02-07 16:20:00,74.9,65.3,29.86,SSE,147,10.0,14.0,72,0.00,,,0.00,VWS V14.01,2013-02-07 21:20:00,
2013-02-07 16:25:00,74.7,65.5,29.86,SSE,154,6.0,14.0,73,0.00,,,0.00,VWS V14.01,2013-02-07 21:25:00,
2013-02-07 16:30:00,74.4,65.2,29.86,SSE,148,10.0,14.0,73,0.00,,,0.00,VWS V14.01,2013-02-07 21:30:00,
2013-02-07 16:35:00,74.2,65.4,29.85,SSE,155,4.0,14.0,74,0.00,,,0.00,VWS V14.01,2013-02-07 21:35:00,
2013-02-07 16:40:00,74.0,65.2,29.85,SE,135,12.0,16.0,74,0.00,,,0.00,VWS V14.01,2013-02-07 21:40:00,
2013-02-07 16:45:00,74.2,65.0,29.85,SE,142,9.0,16.0,73,0.00,,,0.00,VWS V14.01,2013-02-07 21:45:00,
2013-02-07 16:50:00,74.2,65.0,29.86,South,187,5.0,16.0,73,0.00,,,0.00,VWS V14.01,2013-02-07 21:50:00,
2013-02-07 16:55:00,74.4,65.2,29.86,SSE,155,10.0,16.0,73,0.00,,,0.00,VWS V14.01,2013-02-07 21:55:00,
2013-02-07 17:00:00,74.6,65.4,29.86,SE,146,13.0,16.0,73,0.00,,,0.00,VWS V14.01,2013-02-07 22:00:00,
2013-02-07 17:05:00,74.4,65.2,29.86,SE,142,5.0,21.0,73,0.00,,,0.00,VWS V14.01,2013-02-07 22:05:00,
2013-02-07 17:10:00,74.2,65.4,29.86,SSE,161,7.0,14.0,74,0.00,,,0.00,VWS V14.01,2013-02-07 22:10:00,
2013-02-07 17:15:00,74.0,65.6,29.86,SSE,166,5.0,14.0,75,0.00,,,0.00,VWS V14.01,2013-02-07 22:15:00,
2013-02-07 17:20:00,73.7,65.7,29.86,SSE,157,5.0,14.0,76,0.00,,,0.00,VWS V14.01,2013-02-07 22:20:00,
2013-02-07 17:25:00,73.5,65.5,29.86,SE,133,8.0,15.0,76,0.00,,,0.00,VWS V14.01,2013-02-07 22:25:00,
2013-02-07 17:30:00,73.3,65.7,29.86,SSE,165,10.0,15.0,77,0.00,,,0.00,VWS V14.01,2013-02-07 22:30:00,
2013-02-07 17:35:00,73.2,65.9,29.86,SE,141,9.0,15.0,78,0.00,,,0.00,VWS V14.01,2013-02-07 22:35:00,
2013-02-07 17:40:00,73.2,66.3,29.86,SSE,154,4.0,11.0,79,0.00,,,0.00,VWS V14.01,2013-02-07 22:40:00,
2013-02-07 17:45:00,73.0,66.1,29.86,ESE,117,10.0,14.0,79,0.00,,,0.00,VWS V14.01,2013-02-07 22:45:00,
2013-02-07 17:50:00,73.0,66.1,29.85,SE,139,11.0,14.0,79,0.00,,,0.00,VWS V14.01,2013-02-07 22:50:00,
2013-02-07 17:55:00,72.8,66.3,29.85,SSE,152,13.0,15.0,80,0.00,,,0.00,VWS V14.01,2013-02-07 22:55:00,
2013-02-07 18:00:00,72.7,66.2,29.85,SE,135,12.0,15.0,80,0.00,,,0.00,VWS V14.01,2013-02-07 23:00:00,
2013-02-07 18:05:00,72.7,66.2,29.84,SE,126,7.0,15.0,80,0.00,,,0.00,VWS V14.01,2013-02-07 23:05:00,
2013-02-07 18:10:00,72.5,66.3,29.84,SSE,156,7.0,15.0,81,0.00,,,0.00,VWS V14.01,2013-02-07 23:10:00,
2013-02-07 18:15:00,72.5,66.3,29.84,SSE,154,5.0,15.0,81,0.00,,,0.00,VWS V14.01,2013-02-07 23:15:00,
2013-02-07 18:20:00,72.3,66.5,29.84,SSE,155,8.0,15.0,82,0.00,,,0.00,VWS V14.01,2013-02-07 23:20:00,
2013-02-07 18:25:00,72.1,66.3,29.84,SE,135,11.0,15.0,82,0.00,,,0.00,VWS V14.01,2013-02-07 23:25:00,
2013-02-07 18:30:00,72.1,66.3,29.84,South,187,5.0,15.0,82,0.00,,,0.00,VWS V14.01,2013-02-07 23:30:00,
2013-02-07 18:35:00,72.1,66.7,29.85,ESE,121,8.0,15.0,83,0.00,,,0.00,VWS V14.01,2013-02-07 23:35:00,
2013-02-07 18:40:00,72.0,66.6,29.85,SSE,154,7.0,16.0,83,0.00,,,0.00,VWS V14.01,2013-02-07 23:40:00,
2013-02-07 18:45:00,72.0,66.6,29.85,SSE,150,13.0,16.0,83,0.00,,,0.00,VWS V14.01,2013-02-07 23:45:00,
2013-02-07 18:50:00,71.8,66.4,29.85,SSE,162,6.0,16.0,83,0.00,,,0.00,VWS V14.01,2013-02-07 23:50:00,
2013-02-07 18:55:00,71.8,66.4,29.85,SE,133,5.0,16.0,83,0.00,,,0.00,VWS V14.01,2013-02-07 23:55:00,
2013-02-07 19:00:00,71.8,66.7,29.85,South,172,6.0,16.0,84,0.00,,,0.00,VWS V14.01,2013-02-08 00:00:00,
2013-02-07 19:05:00,71.8,66.7,29.85,SSE,147,6.0,16.0,84,0.00,,,0.00,VWS V14.01,2013-02-08 00:05:00,
2013-02-07 19:10:00,71.8,66.7,29.85,SE,144,7.0,13.0,84,0.00,,,0.00,VWS V14.01,2013-02-08 00:10:00,
2013-02-07 19:15:00,71.6,66.5,29.85,SSE,150,11.0,14.0,84,0.00,,,0.00,VWS V14.01,2013-02-08 00:15:00,
2013-02-07 19:20:00,71.6,66.9,29.84,South,186,5.0,14.0,85,0.00,,,0.00,VWS V14.01,2013-02-08 00:20:00,
2013-02-07 19:25:00,71.6,66.9,29.84,SE,139,14.0,14.0,85,0.00,,,0.00,VWS V14.01,2013-02-08 00:25:00,
2013-02-07 19:30:00,71.6,66.9,29.84,SSE,165,2.0,14.0,85,0.00,,,0.00,VWS V14.01,2013-02-08 00:30:00,
2013-02-07 19:35:00,71.6,66.9,29.86,SE,138,5.0,14.0,85,0.00,,,0.00,VWS V14.01,2013-02-08 00:35:00,
2013-02-07 19:40:00,71.6,66.9,29.86,South,171,0.0,9.0,85,0.00,,,0.00,VWS V14.01,2013-02-08 00:40:00,
2013-02-07 19:45:00,71.6,66.9,29.86,SSE,168,2.0,9.0,85,0.00,,,0.00,VWS V14.01,2013-02-08 00:45:00,
2013-02-07 19:50:00,71.6,66.9,29.85,SSE,165,10.0,12.0,85,0.00,,,0.00,VWS V14.01,2013-02-08 00:50:00,
2013-02-07 19:55:00,71.5,66.8,29.85,SSW,205,0.0,12.0,85,0.00,,,0.00,VWS V14.01,2013-02-08 00:55:00,
2013-02-07 20:00:00,71.5,66.8,29.85,SSE,163,7.0,12.0,85,0.00,,,0.00,VWS V14.01,2013-02-08 01:00:00,
2013-02-07 20:05:00,71.5,66.8,29.84,South,186,6.0,12.0,85,0.00,,,0.00,VWS V14.01,2013-02-08 01:05:00,
2013-02-07 20:10:00,71.3,66.6,29.84,South,180,3.0,12.0,85,0.00,,,0.00,VWS V14.01,2013-02-08 01:10:00,
2013-02-07 20:15:00,71.3,66.6,29.84,South,180,3.0,12.0,85,0.00,,,0.00,VWS V14.01,2013-02-08 01:15:00,
2013-02-07 20:20:00,71.3,66.6,29.85,South,180,0.0,12.0,85,0.00,,,0.00,VWS V14.01,2013-02-08 01:20:00,
2013-02-07 20:25:00,71.1,66.4,29.85,SSW,198,2.0,12.0,85,0.00,,,0.00,VWS V14.01,2013-02-08 01:25:00,
2013-02-07 20:30:00,71.1,66.4,29.85,South,178,0.0,12.0,85,0.00,,,0.00,VWS V14.01,2013-02-08 01:30:00,
2013-02-07 20:35:00,71.1,66.4,29.85,SSW,209,0.0,12.0,85,0.00,,,0.00,VWS V14.01,2013-02-08 01:35:00,
2013-02-07 20:40:00,71.1,66.4,29.85,SSW,209,2.0,7.0,85,0.00,,,0.00,VWS V14.01,2013-02-08 01:40:00,
2013-02-07 20:45:00,71.1,66.0,29.85,South,182,4.0,8.0,84,0.00,,,0.00,VWS V14.01,2013-02-08 01:45:00,
2013-02-07 20:50:00,70.9,65.8,29.85,South,183,6.0,8.0,84,0.00,,,0.00,VWS V14.01,2013-02-08 01:50:00,
2013-02-07 20:55:00,70.9,65.8,29.85,SSE,167,3.0,8.0,84,0.00,,,0.00,VWS V14.01,2013-02-08 01:55:00,
2013-02-07 21:00:00,70.9,65.5,29.85,South,177,4.0,8.0,83,0.00,,,0.00,VWS V14.01,2013-02-08 02:00:00,
2013-02-07 21:05:00,70.9,65.5,29.84,South,186,4.0,8.0,83,0.00,,,0.00,VWS V14.01,2013-02-08 02:05:00,
2013-02-07 21:10:00,70.8,65.4,29.84,South,176,7.0,8.0,83,0.00,,,0.00,VWS V14.01,2013-02-08 02:10:00,
2013-02-07 21:15:00,70.8,65.4,29.84,South,190,4.0,8.0,83,0.00,,,0.00,VWS V14.01,2013-02-08 02:15:00,
2013-02-07 21:20:00,70.6,64.8,29.84,SSE,157,3.0,8.0,82,0.00,,,0.00,VWS V14.01,2013-02-08 02:20:00,
2013-02-07 21:25:00,70.6,64.8,29.84,SSE,165,3.0,9.0,82,0.00,,,0.00,VWS V14.01,2013-02-08 02:25:00,
2013-02-07 21:30:00,70.4,64.3,29.84,South,184,5.0,9.0,81,0.00,,,0.00,VWS V14.01,2013-02-08 02:30:00,
2013-02-07 21:35:00,70.4,63.9,29.84,SSW,196,5.0,11.0,80,0.00,,,0.00,VWS V14.01,2013-02-08 02:35:00,
2013-02-07 21:40:00,70.4,63.6,29.84,South,181,6.0,9.0,79,0.00,,,0.00,VWS V14.01,2013-02-08 02:40:00,
2013-02-07 21:45:00,70.4,62.8,29.84,SW,216,1.0,9.0,77,0.00,,,0.00,VWS V14.01,2013-02-08 02:45:00,
2013-02-07 21:50:00,70.6,62.3,29.83,SW,215,5.0,12.0,75,0.00,,,0.00,VWS V14.01,2013-02-08 02:50:00,
2013-02-07 21:55:00,70.8,62.1,29.83,SSW,213,2.0,12.0,74,0.00,,,0.00,VWS V14.01,2013-02-08 02:55:00,
2013-02-07 22:00:00,70.8,62.1,29.83,SW,225,8.0,12.0,74,0.00,,,0.00,VWS V14.01,2013-02-08 03:00:00,
2013-02-07 22:05:00,70.8,61.7,29.83,SSW,200,4.0,14.0,73,0.00,,,0.00,VWS V14.01,2013-02-08 03:05:00,
2013-02-07 22:10:00,70.6,61.5,29.83,South,188,4.0,9.0,73,0.00,,,0.00,VWS V14.01,2013-02-08 03:10:00,
2013-02-07 22:15:00,70.6,61.5,29.83,SW,219,4.0,9.0,73,0.00,,,0.00,VWS V14.01,2013-02-08 03:15:00,
2013-02-07 22:20:00,70.4,61.3,29.82,SSW,213,5.0,9.0,73,0.00,,,0.00,VWS V14.01,2013-02-08 03:20:00,
2013-02-07 22:25:00,70.3,61.6,29.82,SSW,213,5.0,10.0,74,0.00,,,0.00,VWS V14.01,2013-02-08 03:25:00,
2013-02-07 22:30:00,70.3,61.6,29.82,SW,217,10.0,12.0,74,0.00,,,0.00,VWS V14.01,2013-02-08 03:30:00,
2013-02-07 22:35:00,70.3,61.6,29.82,SW,227,6.0,12.0,74,0.00,,,0.00,VWS V14.01,2013-02-08 03:35:00,
2013-02-07 22:40:00,70.1,61.4,29.82,SW,221,6.0,9.0,74,0.00,,,0.00,VWS V14.01,2013-02-08 03:40:00,
2013-02-07 22:45:00,69.9,61.6,29.82,SW,221,6.0,9.0,75,0.00,,,0.00,VWS V14.01,2013-02-08 03:45:00,
2013-02-07 22:50:00,69.8,61.5,29.81,SSW,207,4.0,9.0,75,0.00,,,0.00,VWS V14.01,2013-02-08 03:50:00,
2013-02-07 22:55:00,69.6,61.7,29.81,SSW,207,5.0,9.0,76,0.00,,,0.00,VWS V14.01,2013-02-08 03:55:00,
2013-02-07 23:00:00,69.4,61.5,29.81,SW,217,7.0,10.0,76,0.00,,,0.00,VWS V14.01,2013-02-08 04:00:00,
2013-02-07 23:05:00,69.3,61.4,29.82,SW,217,3.0,10.0,76,0.00,,,0.00,VWS V14.01,2013-02-08 04:05:00,
2013-02-07 23:10:00,69.1,61.6,29.82,SW,227,5.0,9.0,77,0.00,,,0.00,VWS V14.01,2013-02-08 04:10:00,
2013-02-07 23:15:00,68.9,61.4,29.82,SW,217,3.0,9.0,77,0.00,,,0.00,VWS V14.01,2013-02-08 04:15:00,
2013-02-07 23:20:00,68.8,61.7,29.82,South,182,3.0,9.0,78,0.00,,,0.00,VWS V14.01,2013-02-08 04:20:00,
2013-02-07 23:25:00,68.8,61.7,29.82,SW,227,4.0,9.0,78,0.00,,,0.00,VWS V14.01,2013-02-08 04:25:00,
2013-02-07 23:30:00,68.6,61.5,29.82,SW,217,4.0,9.0,78,0.00,,,0.00,VWS V14.01,2013-02-08 04:30:00,
2013-02-07 23:35:00,68.4,61.6,29.82,SW,223,7.0,9.0,79,0.00,,,0.00,VWS V14.01,2013-02-08 04:35:00,
2013-02-07 23:40:00,68.3,61.5,29.82,SW,226,3.0,9.0,79,0.00,,,0.00,VWS V14.01,2013-02-08 04:40:00,
2013-02-07 23:45:00,68.1,61.7,29.82,SW,224,0.0,9.0,80,0.00,,,0.00,VWS V14.01,2013-02-08 04:45:00,
2013-02-07 23:50:00,67.9,61.5,29.81,SW,224,0.0,9.0,80,0.00,,,0.00,VWS V14.01,2013-02-08 04:50:00,
2013-02-07 23:55:00,67.8,61.8,29.81,SW,214,2.0,9.0,81,0.00,,,0.00,VWS V14.01,2013-02-08 04:55:00,